createdAt,value
2018-08-10T21:00:50.965Z,15.20
2018-08-10T21:03:19.023Z,15.10
2018-08-10T21:05:47.518Z,14.80
2018-08-10T21:08:15.733Z,14.60
2018-08-10T21:10:43.861Z,14.50
2018-08-10T21:13:12.062Z,14.90
2018-08-10T21:15:40.201Z,14.30
2018-08-10T21:18:08.737Z,14.30
2018-08-10T21:20:36.881Z,14.20
2018-08-10T21:23:05.047Z,14.20
2018-08-10T21:25:33.225Z,14.10
2018-08-10T21:28:01.385Z,14.00
2018-08-10T21:30:29.462Z,13.90
2018-08-10T21:32:57.641Z,13.90
2018-08-10T21:35:25.857Z,13.90
2018-08-10T21:37:54.043Z,13.80
2018-08-10T21:40:22.185Z,13.70
2018-08-10T21:42:50.351Z,13.70
2018-08-10T21:45:18.497Z,13.70
2018-08-10T21:47:46.608Z,13.70
2018-08-10T21:50:15.417Z,13.70
2018-08-10T21:52:44.315Z,13.70
2018-08-10T21:55:12.685Z,13.70
2018-08-10T21:57:41.107Z,13.80
2018-08-10T22:00:37.210Z,13.80
2018-08-10T22:03:06.182Z,13.70
2018-08-10T22:05:34.314Z,13.70
2018-08-10T22:08:02.533Z,13.70
2018-08-10T22:10:30.689Z,13.50
2018-08-10T22:12:58.881Z,13.40
2018-08-10T22:15:32.505Z,13.30
2018-08-10T22:18:05.962Z,13.20
2018-08-10T22:20:34.165Z,13.20
2018-08-10T22:23:02.322Z,13.30
2018-08-10T22:25:30.733Z,13.30
2018-08-10T22:27:58.861Z,13.30
2018-08-10T22:30:27.045Z,13.20
2018-08-10T22:32:55.191Z,13.10
2018-08-10T22:35:23.390Z,13.00
2018-08-10T22:37:51.527Z,13.00
2018-08-10T22:40:19.952Z,12.90
2018-08-10T22:42:48.085Z,12.80
2018-08-10T22:45:16.315Z,12.70
2018-08-10T22:47:44.477Z,12.70
2018-08-10T22:50:12.605Z,12.70
2018-08-10T22:52:40.817Z,12.80
2018-08-10T22:56:12.089Z,12.80
2018-08-10T22:58:40.227Z,12.80
2018-08-10T23:01:08.484Z,12.70
2018-08-10T23:03:36.706Z,12.70
2018-08-10T23:06:04.845Z,12.60
2018-08-10T23:08:33.298Z,12.60
2018-08-10T23:11:01.428Z,12.60
2018-08-10T23:13:29.793Z,12.60
2018-08-10T23:15:58.288Z,12.60
2018-08-10T23:18:27.479Z,12.60
2018-08-10T23:20:55.653Z,12.60
2018-08-10T23:23:23.824Z,12.60
2018-08-10T23:25:51.968Z,12.60
2018-08-10T23:28:20.229Z,12.60
2018-08-10T23:30:49.009Z,12.60
2018-08-10T23:33:17.113Z,12.60
2018-08-10T23:35:45.285Z,12.60
2018-08-10T23:38:13.507Z,12.60
2018-08-10T23:40:41.885Z,12.50
2018-08-10T23:43:14.013Z,12.50
2018-08-10T23:45:42.281Z,12.50
2018-08-10T23:48:10.507Z,12.60
2018-08-10T23:50:38.665Z,12.60
2018-08-10T23:53:06.829Z,12.60
2018-08-10T23:55:35.008Z,12.50
2018-08-10T23:58:03.306Z,12.60
